sensor_id;sensor_type;location;lat;lon;timestamp;pressure;altitude;pressure_sealevel;temperature;humidity
75923;BME280;64602;47.542;19.090;2022-11-15T05:57:52;100704.31;;;5.82;89.46
75923;BME280;64602;47.542;19.090;2022-11-15T06:02:54;100687.75;;;5.85;89.34
75923;BME280;64602;47.542;19.090;2022-11-15T06:07:59;100688.13;;;5.89;89.29
75923;BME280;64602;47.542;19.090;2022-11-15T06:13:02;100669.91;;;5.84;89.24
75923;BME280;64602;47.542;19.090;2022-11-15T06:18:05;100667.00;;;5.92;89.29
75923;BME280;64602;47.542;19.090;2022-11-15T06:23:07;100672.59;;;5.97;89.30
75923;BME280;64602;47.542;19.090;2022-11-15T06:28:09;100671.34;;;6.00;89.07
75923;BME280;64602;47.542;19.090;2022-11-15T06:33:11;100670.69;;;6.05;89.08
75923;BME280;64602;47.542;19.090;2022-11-15T06:38:13;100688.84;;;6.16;88.99
75923;BME280;64602;47.542;19.090;2022-11-15T06:43:15;100702.94;;;6.18;88.91
75923;BME280;64602;47.542;19.090;2022-11-15T06:48:17;100691.53;;;6.23;89.12
75923;BME280;64602;47.542;19.090;2022-11-15T06:53:19;100681.37;;;6.18;89.63
75923;BME280;64602;47.542;19.090;2022-11-15T06:58:21;100703.75;;;6.25;89.64
75923;BME280;64602;47.542;19.090;2022-11-15T07:03:23;100686.97;;;6.16;89.74
75923;BME280;64602;47.542;19.090;2022-11-15T07:08:27;100670.81;;;6.16;89.59
75923;BME280;64602;47.542;19.090;2022-11-15T07:13:31;100682.62;;;6.22;89.77
75923;BME280;64602;47.542;19.090;2022-11-15T07:18:38;100673.66;;;6.28;89.63
75923;BME280;64602;47.542;19.090;2022-11-15T07:23:41;100671.72;;;6.42;89.93
75923;BME280;64602;47.542;19.090;2022-11-15T07:28:43;100671.72;;;6.42;89.48
75923;BME280;64602;47.542;19.090;2022-11-15T07:33:45;100676.59;;;6.58;89.56
75923;BME280;64602;47.542;19.090;2022-11-15T07:38:47;100667.59;;;6.64;89.43
75923;BME280;64602;47.542;19.090;2022-11-15T07:43:51;100658.03;;;6.69;89.29
75923;BME280;64602;47.542;19.090;2022-11-15T07:48:54;100668.16;;;6.73;89.04
75923;BME280;64602;47.542;19.090;2022-11-15T07:53:56;100680.34;;;6.82;88.91
75923;BME280;64602;47.542;19.090;2022-11-15T07:58:58;100657.75;;;6.77;88.64
75923;BME280;64602;47.542;19.090;2022-11-15T08:04:00;100664.06;;;6.89;88.69
75923;BME280;64602;47.542;19.090;2022-11-15T08:09:03;100652.47;;;6.89;88.53
75923;BME280;64602;47.542;19.090;2022-11-15T08:14:05;100652.62;;;6.94;88.34
75923;BME280;64602;47.542;19.090;2022-11-15T08:19:07;100653.78;;;7.04;87.86
75923;BME280;64602;47.542;19.090;2022-11-15T08:24:09;100651.41;;;7.15;88.06
75923;BME280;64602;47.542;19.090;2022-11-15T08:29:12;100643.25;;;7.21;87.89
75923;BME280;64602;47.542;19.090;2022-11-15T08:34:14;100640.75;;;7.20;87.50
75923;BME280;64602;47.542;19.090;2022-11-15T08:39:16;100630.56;;;7.22;88.02
75923;BME280;64602;47.542;19.090;2022-11-15T08:44:18;100618.56;;;7.18;88.52
75923;BME280;64602;47.542;19.090;2022-11-15T08:49:21;100604.62;;;7.21;89.26
75923;BME280;64602;47.542;19.090;2022-11-15T08:54:23;100608.38;;;7.38;89.43
75923;BME280;64602;47.542;19.090;2022-11-15T08:59:25;100605.22;;;7.41;89.04
75923;BME280;64602;47.542;19.090;2022-11-15T09:04:27;100607.38;;;7.51;89.11
75923;BME280;64602;47.542;19.090;2022-11-15T09:09:29;100605.38;;;7.46;88.85
75923;BME280;64602;47.542;19.090;2022-11-15T09:14:31;100608.53;;;7.43;88.93
75923;BME280;64602;47.542;19.090;2022-11-15T09:19:33;100598.22;;;7.52;89.12
75923;BME280;64602;47.542;19.090;2022-11-15T09:24:35;100587.53;;;7.76;88.75
75923;BME280;64602;47.542;19.090;2022-11-15T09:29:38;100573.53;;;7.97;88.73
75923;BME280;64602;47.542;19.090;2022-11-15T09:34:40;100586.25;;;8.08;88.35
75923;BME280;64602;47.542;19.090;2022-11-15T09:39:42;100573.09;;;8.12;88.41
75923;BME280;64602;47.542;19.090;2022-11-15T09:45:15;100562.84;;;8.02;88.73
75923;BME280;64602;47.542;19.090;2022-11-15T09:51:12;100574.41;;;8.21;88.73
75923;BME280;64602;47.542;19.090;2022-11-15T09:56:03;100567.25;;;8.27;88.34
75923;BME280;64602;47.542;19.090;2022-11-15T10:01:15;100551.84;;;8.16;87.92
75923;BME280;64602;47.542;19.090;2022-11-15T10:06:24;100560.09;;;8.21;88.38
75923;BME280;64602;47.542;19.090;2022-11-15T10:11:32;100559.22;;;8.20;87.38
75923;BME280;64602;47.542;19.090;2022-11-15T10:22:08;100547.00;;;8.06;88.09
75923;BME280;64602;47.542;19.090;2022-11-15T10:27:16;100531.19;;;7.91;87.87
75923;BME280;64602;47.542;19.090;2022-11-15T10:32:20;100511.13;;;7.87;88.91
75923;BME280;64602;47.542;19.090;2022-11-15T10:37:28;100516.53;;;7.87;88.95
75923;BME280;64602;47.542;19.090;2022-11-15T10:42:31;100500.66;;;7.90;88.59
75923;BME280;64602;47.542;19.090;2022-11-15T10:47:33;100513.59;;;8.00;88.44
75923;BME280;64602;47.542;19.090;2022-11-15T10:52:45;100501.63;;;8.08;88.76
75923;BME280;64602;47.542;19.090;2022-11-15T10:57:53;100479.78;;;8.09;88.43
75923;BME280;64602;47.542;19.090;2022-11-15T11:08:03;100491.44;;;8.33;88.08
75923;BME280;64602;47.542;19.090;2022-11-15T11:13:37;100462.06;;;8.25;87.96
75923;BME280;64602;47.542;19.090;2022-11-15T11:40:35;100451.47;;;8.59;86.85
75923;BME280;64602;47.542;19.090;2022-11-15T11:51:28;100447.47;;;8.26;85.95
75923;BME280;64602;47.542;19.090;2022-11-15T11:56:37;100432.16;;;8.32;86.05
75923;BME280;64602;47.542;19.090;2022-11-15T12:01:42;100412.44;;;8.31;87.22
75923;BME280;64602;47.542;19.090;2022-11-15T12:06:57;100402.19;;;8.33;87.29
75923;BME280;64602;47.542;19.090;2022-11-15T12:12:15;100390.81;;;8.43;87.11
75923;BME280;64602;47.542;19.090;2022-11-15T12:17:26;100392.19;;;8.34;86.47
75923;BME280;64602;47.542;19.090;2022-11-15T12:27:40;100383.66;;;8.25;85.98
75923;BME280;64602;47.542;19.090;2022-11-15T12:32:56;100368.22;;;8.38;86.42
75923;BME280;64602;47.542;19.090;2022-11-15T12:37:59;100367.06;;;8.33;86.03
75923;BME280;64602;47.542;19.090;2022-11-15T12:58:45;100355.31;;;8.16;86.38
75923;BME280;64602;47.542;19.090;2022-11-15T13:15:01;100331.31;;;8.20;87.04
75923;BME280;64602;47.542;19.090;2022-11-15T13:30:57;100331.81;;;8.05;86.80
75923;BME280;64602;47.542;19.090;2022-11-15T13:36:07;100337.69;;;8.25;87.11
75923;BME280;64602;47.542;19.090;2022-11-15T13:41:22;100327.00;;;8.07;86.95
75923;BME280;64602;47.542;19.090;2022-11-15T13:46:32;100325.22;;;8.12;87.41
75923;BME280;64602;47.542;19.090;2022-11-15T13:51:45;100321.72;;;8.00;87.57
75923;BME280;64602;47.542;19.090;2022-11-15T13:57:01;100312.91;;;8.05;88.54
75923;BME280;64602;47.542;19.090;2022-11-15T14:02:16;100305.25;;;8.25;87.60
75923;BME280;64602;47.542;19.090;2022-11-15T14:07:21;100281.34;;;8.46;86.64
75923;BME280;64602;47.542;19.090;2022-11-15T14:12:30;100271.69;;;8.38;86.88
75923;BME280;64602;47.542;19.090;2022-11-15T14:17:35;100275.50;;;8.25;87.13
75923;BME280;64602;47.542;19.090;2022-11-15T14:22:51;100280.66;;;8.27;87.30
75923;BME280;64602;47.542;19.090;2022-11-15T14:38:32;100272.28;;;7.88;86.75
75923;BME280;64602;47.542;19.090;2022-11-15T14:43:34;100261.81;;;7.91;87.08
75923;BME280;64602;47.542;19.090;2022-11-15T14:48:36;100261.47;;;7.88;87.67
75923;BME280;64602;47.542;19.090;2022-11-15T14:53:40;100249.25;;;7.85;87.91
75923;BME280;64602;47.542;19.090;2022-11-15T14:58:42;100228.44;;;7.86;87.87
75923;BME280;64602;47.542;19.090;2022-11-15T15:03:44;100229.03;;;7.88;87.65
75923;BME280;64602;47.542;19.090;2022-11-15T15:08:47;100217.66;;;7.86;88.08
75923;BME280;64602;47.542;19.090;2022-11-15T15:13:52;100217.91;;;7.84;88.12
75923;BME280;64602;47.542;19.090;2022-11-15T15:18:54;100225.53;;;7.87;87.89
75923;BME280;64602;47.542;19.090;2022-11-15T15:23:57;100223.44;;;7.54;87.65
75923;BME280;64602;47.542;19.090;2022-11-15T15:28:59;100222.50;;;7.72;88.17
75923;BME280;64602;47.542;19.090;2022-11-15T15:34:01;100220.50;;;7.67;88.19
75923;BME280;64602;47.542;19.090;2022-11-15T15:39:03;100213.22;;;7.68;88.60
75923;BME280;64602;47.542;19.090;2022-11-15T15:44:05;100220.94;;;7.76;88.41
75923;BME280;64602;47.542;19.090;2022-11-15T15:49:09;100224.72;;;7.75;88.36
75923;BME280;64602;47.542;19.090;2022-11-15T15:54:11;100215.09;;;7.67;88.40
75923;BME280;64602;47.542;19.090;2022-11-15T15:59:13;100202.41;;;7.68;88.28
75923;BME280;64602;47.542;19.090;2022-11-15T16:04:15;100207.44;;;7.76;88.22
75923;BME280;64602;47.542;19.090;2022-11-15T16:09:19;100219.06;;;7.77;88.27
75923;BME280;64602;47.542;19.090;2022-11-15T16:14:44;100207.44;;;7.76;88.25
75923;BME280;64602;47.542;19.090;2022-11-15T16:19:46;100204.16;;;7.74;88.31
75923;BME280;64602;47.542;19.090;2022-11-15T16:24:49;100192.19;;;7.70;88.61
75923;BME280;64602;47.542;19.090;2022-11-15T16:29:51;100192.31;;;7.63;88.37
75923;BME280;64602;47.542;19.090;2022-11-15T16:34:53;100203.94;;;7.52;88.16
75923;BME280;64602;47.542;19.090;2022-11-15T16:39:55;100200.69;;;7.38;88.68
75923;BME280;64602;47.542;19.090;2022-11-15T16:45:02;100196.69;;;7.29;88.62
75923;BME280;64602;47.542;19.090;2022-11-15T16:50:04;100206.91;;;7.39;88.92
75923;BME280;64602;47.542;19.090;2022-11-15T16:55:06;100183.06;;;7.47;89.02
75923;BME280;64602;47.542;19.090;2022-11-15T17:00:12;100193.16;;;7.52;88.94
75923;BME280;64602;47.542;19.090;2022-11-15T17:05:20;100183.31;;;7.58;88.91
75923;BME280;64602;47.542;19.090;2022-11-15T17:10:24;100174.72;;;7.61;88.79
75923;BME280;64602;47.542;19.090;2022-11-15T17:15:26;100157.72;;;7.48;88.83
75923;BME280;64602;47.542;19.090;2022-11-15T17:20:28;100172.81;;;7.61;88.99
75923;BME280;64602;47.542;19.090;2022-11-15T17:25:30;100170.94;;;7.62;89.06
75923;BME280;64602;47.542;19.090;2022-11-15T17:30:32;100161.09;;;7.56;89.40
75923;BME280;64602;47.542;19.090;2022-11-15T17:35:36;100144.66;;;7.57;89.38
75923;BME280;64602;47.542;19.090;2022-11-15T17:40:38;100161.53;;;7.64;89.51
75923;BME280;64602;47.542;19.090;2022-11-15T17:45:40;100139.94;;;7.64;89.50
75923;BME280;64602;47.542;19.090;2022-11-15T17:50:43;100129.03;;;7.59;89.29
75923;BME280;64602;47.542;19.090;2022-11-15T17:55:45;100143.50;;;7.53;89.66
75923;BME280;64602;47.542;19.090;2022-11-15T18:00:47;100131.50;;;7.61;89.88
75923;BME280;64602;47.542;19.090;2022-11-15T18:05:50;100113.22;;;7.51;89.89
75923;BME280;64602;47.542;19.090;2022-11-15T18:11:08;100118.81;;;7.61;89.94
75923;BME280;64602;47.542;19.090;2022-11-15T18:16:13;100102.75;;;7.55;89.93
75923;BME280;64602;47.542;19.090;2022-11-15T18:21:17;100105.41;;;7.66;90.22
75923;BME280;64602;47.542;19.090;2022-11-15T18:26:21;100103.59;;;7.55;90.27
75923;BME280;64602;47.542;19.090;2022-11-15T18:31:29;100098.91;;;7.51;90.57
75923;BME280;64602;47.542;19.090;2022-11-15T18:36:31;100102.63;;;7.49;90.73
75923;BME280;64602;47.542;19.090;2022-11-15T18:41:34;100089.97;;;7.50;90.84
75923;BME280;64602;47.542;19.090;2022-11-15T18:46:37;100093.59;;;7.56;90.86
75923;BME280;64602;47.542;19.090;2022-11-15T18:51:40;100085.22;;;7.57;90.68
75923;BME280;64602;47.542;19.090;2022-11-15T18:56:45;100075.03;;;7.59;90.68
75923;BME280;64602;47.542;19.090;2022-11-15T19:01:48;100092.50;;;7.68;90.57
75923;BME280;64602;47.542;19.090;2022-11-15T19:06:50;100085.78;;;7.71;90.66
75923;BME280;64602;47.542;19.090;2022-11-15T19:11:54;100082.59;;;7.74;90.68
75923;BME280;64602;47.542;19.090;2022-11-15T19:16:56;100071.59;;;7.64;90.68
75923;BME280;64602;47.542;19.090;2022-11-15T19:21:59;100052.69;;;7.64;90.14
75923;BME280;64602;47.542;19.090;2022-11-15T19:27:01;100057.50;;;7.62;90.68
75923;BME280;64602;47.542;19.090;2022-11-15T19:32:03;100040.84;;;7.65;90.84
75923;BME280;64602;47.542;19.090;2022-11-15T19:37:06;100052.31;;;7.72;90.75
75923;BME280;64602;47.542;19.090;2022-11-15T19:42:08;100045.03;;;7.73;90.80
75923;BME280;64602;47.542;19.090;2022-11-15T19:47:10;100037.69;;;7.56;91.12
75923;BME280;64602;47.542;19.090;2022-11-15T19:52:12;100038.06;;;7.60;91.28
75923;BME280;64602;47.542;19.090;2022-11-15T19:57:14;100041.47;;;7.55;91.36
75923;BME280;64602;47.542;19.090;2022-11-15T20:02:16;100047.16;;;7.70;91.24
75923;BME280;64602;47.542;19.090;2022-11-15T20:07:18;100030.72;;;7.72;91.17
75923;BME280;64602;47.542;19.090;2022-11-15T20:12:20;100024.47;;;7.71;91.19
75923;BME280;64602;47.542;19.090;2022-11-15T20:17:22;100009.84;;;7.67;91.23
75923;BME280;64602;47.542;19.090;2022-11-15T20:22:25;99991.38;;;7.64;91.35
75923;BME280;64602;47.542;19.090;2022-11-15T20:27:28;99996.16;;;7.74;91.32
75923;BME280;64602;47.542;19.090;2022-11-15T20:32:30;99991.25;;;7.71;91.46
75923;BME280;64602;47.542;19.090;2022-11-15T20:37:32;99984.81;;;7.72;91.36
75923;BME280;64602;47.542;19.090;2022-11-15T20:42:34;99992.91;;;7.72;91.45
75923;BME280;64602;47.542;19.090;2022-11-15T20:47:36;99967.66;;;7.66;91.25
75923;BME280;64602;47.542;19.090;2022-11-15T20:52:38;99972.66;;;7.58;91.26
75923;BME280;64602;47.542;19.090;2022-11-15T20:57:40;99952.69;;;7.59;91.21
75923;BME280;64602;47.542;19.090;2022-11-15T21:02:42;99956.88;;;7.66;91.28
75923;BME280;64602;47.542;19.090;2022-11-15T21:07:44;99963.34;;;7.65;91.24
75923;BME280;64602;47.542;19.090;2022-11-15T21:12:46;99958.56;;;7.56;91.30
75923;BME280;64602;47.542;19.090;2022-11-15T21:17:48;99956.91;;;7.55;91.42
75923;BME280;64602;47.542;19.090;2022-11-15T21:22:50;99960.50;;;7.43;91.82
75923;BME280;64602;47.542;19.090;2022-11-15T21:27:52;99946.88;;;7.50;91.64
75923;BME280;64602;47.542;19.090;2022-11-15T21:32:54;99926.75;;;7.58;91.46
75923;BME280;64602;47.542;19.090;2022-11-15T21:37:57;99926.50;;;7.59;91.39
75923;BME280;64602;47.542;19.090;2022-11-15T21:42:59;99925.53;;;7.65;91.38
75923;BME280;64602;47.542;19.090;2022-11-15T21:48:01;99920.19;;;7.54;91.71
75923;BME280;64602;47.542;19.090;2022-11-15T21:53:03;99925.03;;;7.68;91.67
75923;BME280;64602;47.542;19.090;2022-11-15T21:58:05;99931.97;;;7.64;91.89
75923;BME280;64602;47.542;19.090;2022-11-15T22:03:07;99911.28;;;7.53;92.06
75923;BME280;64602;47.542;19.090;2022-11-15T22:08:09;99929.03;;;7.66;92.08
75923;BME280;64602;47.542;19.090;2022-11-15T22:13:11;99921.81;;;7.55;92.28
75923;BME280;64602;47.542;19.090;2022-11-15T22:18:13;99913.03;;;7.47;92.43
75923;BME280;64602;47.542;19.090;2022-11-15T22:23:15;99917.81;;;7.40;92.72
75923;BME280;64602;47.542;19.090;2022-11-15T22:28:18;99917.25;;;7.55;92.72
75923;BME280;64602;47.542;19.090;2022-11-15T22:33:23;99896.69;;;7.54;92.48
75923;BME280;64602;47.542;19.090;2022-11-15T22:38:26;99897.78;;;7.70;92.29
75923;BME280;64602;47.542;19.090;2022-11-15T22:43:28;99889.41;;;7.71;92.05
75923;BME280;64602;47.542;19.090;2022-11-15T22:48:35;99873.06;;;7.61;92.13
75923;BME280;64602;47.542;19.090;2022-11-15T22:53:38;99869.97;;;7.69;92.08
75923;BME280;64602;47.542;19.090;2022-11-15T22:58:40;99861.88;;;7.69;92.37
